Aeroporto :
LOGIN :

Iscrizione | Disclaimer

   EN    FR    IT 

 










Sommario :    VFR   VFR Marginale   IFR   IFR Intensivo   IFR Molto Intensivo
Visibilità : 
Base nubi : 
>= 8 km
>= 3000ft
5 / 8 km
1000 / 3000 ft
1500m / 5 km
500 / 1000 ft
800 / 1500m
200 / 500 ft
< 800m
< 200 ft
Simboli :   Temporali  Nebbia  Neve Forte  Precipitazioni Forti  Vento > 20 kt
SIGMETs :   Varie  Temporali  Ghiacco  Turbolenza  Onda orograficha  Ceneri Vulcaniche






- Altitudine del aeroporto : 220 ft
- Codice IATA : CWL


EGFF - Cardiff Rhoose

ULTIMO METAR :
  • 191220Z 09008KT 9999 FEW025 SCT047 07/06 Q1014

METARs OBSOLETI :
  • 191150Z 10009KT 7000 FEW024 SCT044 07/06 Q1014
  • 191120Z 09007KT 9000 FEW032 06/05 Q1014
  • 191050Z 11008KT 8000 FEW032 06/05 Q1014
  • 191020Z 09010KT 7000 FEW030 05/05 Q1014
  • 190950Z 10011KT 7000 SCT028 04/04 Q1015

TAF TAF EGFF
Valido dal 19 a 12 ore il 20 a 12 ore UTC


191104Z 1912/2012 12010KT 8000 SCT028
BECMG 1912/1915 9999
PROB40 1915/1921 8000
PROB30
TEMPO 1921/2006 13015G25KT
PROB30
TEMPO 2000/2010 BKN010
TEMPO 2006/2012 13018G28KT
ATIS : +44 1446 729 319



MetMap, La meteo Aeronautica in un colpo d'occhio ! - Copyright ORBIFLY Dicembre 2007 - Disclaimer

ORBIFLY MET'MAP TEAM :

Programmazione e sviluppo : Alexandra Zaïnal
Concezione e sviluppo : Baudouin d'Aumeries
Co-Programmazione e sviluppo : Marc-Olivier Méhu
Supporto tecnico e logistico : Manuel Goepfert
Aiuto per la traduzione : Arnaldo La Scala

Contatto : metmap@orbifly.com




FONTI E CREDITI :

   NOAA